sensor_id;sensor_type;location;lat;lon;timestamp;P1;durP1;ratioP1;P2;durP2;ratioP2
18340;SDS011;9296;48.084;16.352;2023-02-24T00:02:24;34.08;;;21.23;;
18340;SDS011;9296;48.084;16.352;2023-02-24T00:08:15;39.15;;;22.90;;
18340;SDS011;9296;48.084;16.352;2023-02-24T00:10:42;43.05;;;22.67;;
18340;SDS011;9296;48.084;16.352;2023-02-24T00:13:09;38.72;;;21.90;;
18340;SDS011;9296;48.084;16.352;2023-02-24T00:15:37;36.30;;;22.13;;
18340;SDS011;9296;48.084;16.352;2023-02-24T00:18:05;34.97;;;21.05;;
18340;SDS011;9296;48.084;16.352;2023-02-24T00:20:32;35.30;;;21.55;;
18340;SDS011;9296;48.084;16.352;2023-02-24T00:23:00;38.67;;;22.70;;
18340;SDS011;9296;48.084;16.352;2023-02-24T00:25:27;35.60;;;21.17;;
18340;SDS011;9296;48.084;16.352;2023-02-24T00:27:54;39.75;;;22.38;;
18340;SDS011;9296;48.084;16.352;2023-02-24T00:30:25;36.75;;;21.48;;
18340;SDS011;9296;48.084;16.352;2023-02-24T00:32:53;35.35;;;20.80;;
18340;SDS011;9296;48.084;16.352;2023-02-24T00:35:26;37.47;;;21.52;;
18340;SDS011;9296;48.084;16.352;2023-02-24T00:37:54;37.70;;;22.77;;
18340;SDS011;9296;48.084;16.352;2023-02-24T00:40:21;37.53;;;21.23;;
18340;SDS011;9296;48.084;16.352;2023-02-24T00:42:48;38.65;;;21.73;;
18340;SDS011;9296;48.084;16.352;2023-02-24T00:45:15;35.60;;;20.60;;
18340;SDS011;9296;48.084;16.352;2023-02-24T00:47:42;33.72;;;20.67;;
18340;SDS011;9296;48.084;16.352;2023-02-24T00:50:10;41.35;;;22.35;;
18340;SDS011;9296;48.084;16.352;2023-02-24T00:52:39;40.95;;;22.92;;
18340;SDS011;9296;48.084;16.352;2023-02-24T00:55:07;41.75;;;24.08;;
18340;SDS011;9296;48.084;16.352;2023-02-24T00:57:39;39.65;;;23.35;;
18340;SDS011;9296;48.084;16.352;2023-02-24T01:00:07;37.55;;;22.20;;
18340;SDS011;9296;48.084;16.352;2023-02-24T01:02:39;37.00;;;21.88;;
18340;SDS011;9296;48.084;16.352;2023-02-24T01:05:06;38.90;;;22.65;;
18340;SDS011;9296;48.084;16.352;2023-02-24T01:07:34;36.38;;;21.70;;
18340;SDS011;9296;48.084;16.352;2023-02-24T01:10:02;41.40;;;22.58;;
18340;SDS011;9296;48.084;16.352;2023-02-24T01:12:32;37.17;;;22.25;;
18340;SDS011;9296;48.084;16.352;2023-02-24T01:15:14;38.13;;;23.30;;
18340;SDS011;9296;48.084;16.352;2023-02-24T01:17:41;37.10;;;22.48;;
18340;SDS011;9296;48.084;16.352;2023-02-24T01:20:09;38.40;;;22.70;;
18340;SDS011;9296;48.084;16.352;2023-02-24T01:22:42;37.75;;;23.08;;
18340;SDS011;9296;48.084;16.352;2023-02-24T01:25:11;41.80;;;23.30;;
18340;SDS011;9296;48.084;16.352;2023-02-24T01:27:38;41.55;;;23.42;;
18340;SDS011;9296;48.084;16.352;2023-02-24T01:30:06;39.03;;;22.98;;
18340;SDS011;9296;48.084;16.352;2023-02-24T01:32:39;35.70;;;21.80;;
18340;SDS011;9296;48.084;16.352;2023-02-24T01:35:07;37.10;;;22.27;;
18340;SDS011;9296;48.084;16.352;2023-02-24T01:37:36;36.85;;;23.13;;
18340;SDS011;9296;48.084;16.352;2023-02-24T01:40:03;42.75;;;22.33;;
18340;SDS011;9296;48.084;16.352;2023-02-24T01:42:43;38.40;;;22.48;;
18340;SDS011;9296;48.084;16.352;2023-02-24T01:45:15;35.30;;;22.13;;
18340;SDS011;9296;48.084;16.352;2023-02-24T01:47:45;37.40;;;21.83;;
18340;SDS011;9296;48.084;16.352;2023-02-24T01:53:34;34.70;;;21.80;;
18340;SDS011;9296;48.084;16.352;2023-02-24T01:56:01;39.13;;;21.92;;
18340;SDS011;9296;48.084;16.352;2023-02-24T01:58:32;40.08;;;22.35;;
18340;SDS011;9296;48.084;16.352;2023-02-24T02:01:01;39.50;;;22.75;;
18340;SDS011;9296;48.084;16.352;2023-02-24T02:06:38;37.72;;;22.48;;
18340;SDS011;9296;48.084;16.352;2023-02-24T02:09:06;40.30;;;23.58;;
18340;SDS011;9296;48.084;16.352;2023-02-24T02:11:34;39.10;;;23.08;;
18340;SDS011;9296;48.084;16.352;2023-02-24T02:14:03;41.47;;;23.70;;
18340;SDS011;9296;48.084;16.352;2023-02-24T02:16:36;39.72;;;22.45;;
18340;SDS011;9296;48.084;16.352;2023-02-24T02:25:17;41.10;;;23.70;;
18340;SDS011;9296;48.084;16.352;2023-02-24T02:33:58;43.65;;;25.48;;
18340;SDS011;9296;48.084;16.352;2023-02-24T02:36:42;40.95;;;24.45;;
18340;SDS011;9296;48.084;16.352;2023-02-24T02:39:19;39.38;;;23.70;;
18340;SDS011;9296;48.084;16.352;2023-02-24T02:41:55;38.08;;;23.92;;
18340;SDS011;9296;48.084;16.352;2023-02-24T02:44:30;41.05;;;24.33;;
18340;SDS011;9296;48.084;16.352;2023-02-24T02:47:05;40.08;;;24.05;;
18340;SDS011;9296;48.084;16.352;2023-02-24T02:52:27;40.70;;;23.30;;
18340;SDS011;9296;48.084;16.352;2023-02-24T02:54:59;43.75;;;23.77;;
18340;SDS011;9296;48.084;16.352;2023-02-24T02:57:31;39.60;;;23.30;;
18340;SDS011;9296;48.084;16.352;2023-02-24T03:00:01;40.83;;;23.02;;
18340;SDS011;9296;48.084;16.352;2023-02-24T03:02:37;44.50;;;25.23;;
18340;SDS011;9296;48.084;16.352;2023-02-24T03:05:10;41.97;;;23.83;;
18340;SDS011;9296;48.084;16.352;2023-02-24T03:07:46;43.42;;;24.27;;
18340;SDS011;9296;48.084;16.352;2023-02-24T03:10:18;39.58;;;23.92;;
18340;SDS011;9296;48.084;16.352;2023-02-24T03:12:49;41.63;;;24.40;;
18340;SDS011;9296;48.084;16.352;2023-02-24T03:15:19;43.20;;;24.33;;
18340;SDS011;9296;48.084;16.352;2023-02-24T03:17:50;40.85;;;24.40;;
18340;SDS011;9296;48.084;16.352;2023-02-24T03:23:30;45.47;;;24.70;;
18340;SDS011;9296;48.084;16.352;2023-02-24T03:26:01;41.95;;;23.98;;
18340;SDS011;9296;48.084;16.352;2023-02-24T03:28:42;42.50;;;24.48;;
18340;SDS011;9296;48.084;16.352;2023-02-24T03:31:17;43.05;;;25.30;;
18340;SDS011;9296;48.084;16.352;2023-02-24T03:33:56;40.95;;;24.05;;
18340;SDS011;9296;48.084;16.352;2023-02-24T03:36:29;42.75;;;24.02;;
18340;SDS011;9296;48.084;16.352;2023-02-24T03:38:57;44.22;;;25.52;;
18340;SDS011;9296;48.084;16.352;2023-02-24T03:41:26;40.88;;;24.65;;
18340;SDS011;9296;48.084;16.352;2023-02-24T03:43:59;40.50;;;23.55;;
18340;SDS011;9296;48.084;16.352;2023-02-24T03:46:29;44.55;;;25.00;;
18340;SDS011;9296;48.084;16.352;2023-02-24T03:48:58;44.72;;;25.58;;
18340;SDS011;9296;48.084;16.352;2023-02-24T03:51:34;45.10;;;25.45;;
18340;SDS011;9296;48.084;16.352;2023-02-24T03:54:02;39.08;;;24.35;;
18340;SDS011;9296;48.084;16.352;2023-02-24T03:56:43;44.72;;;25.85;;
18340;SDS011;9296;48.084;16.352;2023-02-24T03:59:24;44.28;;;25.52;;
18340;SDS011;9296;48.084;16.352;2023-02-24T04:02:03;42.20;;;25.52;;
18340;SDS011;9296;48.084;16.352;2023-02-24T04:04:35;44.58;;;26.30;;
18340;SDS011;9296;48.084;16.352;2023-02-24T04:07:10;49.60;;;26.13;;
18340;SDS011;9296;48.084;16.352;2023-02-24T04:09:41;41.90;;;25.90;;
18340;SDS011;9296;48.084;16.352;2023-02-24T04:12:15;44.97;;;25.77;;
18340;SDS011;9296;48.084;16.352;2023-02-24T04:14:47;45.15;;;27.08;;
18340;SDS011;9296;48.084;16.352;2023-02-24T04:17:18;47.15;;;28.15;;
18340;SDS011;9296;48.084;16.352;2023-02-24T04:23:13;53.30;;;27.08;;
18340;SDS011;9296;48.084;16.352;2023-02-24T04:25:43;45.33;;;26.83;;
18340;SDS011;9296;48.084;16.352;2023-02-24T04:28:13;48.13;;;27.50;;
18340;SDS011;9296;48.084;16.352;2023-02-24T04:30:43;49.13;;;27.33;;
18340;SDS011;9296;48.084;16.352;2023-02-24T04:33:31;48.38;;;27.55;;
18340;SDS011;9296;48.084;16.352;2023-02-24T04:35:58;42.28;;;26.10;;
18340;SDS011;9296;48.084;16.352;2023-02-24T04:38:27;45.05;;;27.27;;
18340;SDS011;9296;48.084;16.352;2023-02-24T04:40:54;53.22;;;32.17;;
18340;SDS011;9296;48.084;16.352;2023-02-24T04:43:22;48.38;;;29.20;;
18340;SDS011;9296;48.084;16.352;2023-02-24T04:45:49;44.08;;;26.58;;
18340;SDS011;9296;48.084;16.352;2023-02-24T04:48:16;46.15;;;27.00;;
18340;SDS011;9296;48.084;16.352;2023-02-24T04:50:44;45.97;;;27.23;;
18340;SDS011;9296;48.084;16.352;2023-02-24T04:53:13;43.83;;;25.83;;
18340;SDS011;9296;48.084;16.352;2023-02-24T04:55:43;46.50;;;26.52;;
18340;SDS011;9296;48.084;16.352;2023-02-24T04:58:13;45.38;;;27.38;;
18340;SDS011;9296;48.084;16.352;2023-02-24T05:00:44;43.53;;;25.35;;
18340;SDS011;9296;48.084;16.352;2023-02-24T05:03:13;41.35;;;25.85;;
18340;SDS011;9296;48.084;16.352;2023-02-24T05:09:07;43.33;;;24.95;;
18340;SDS011;9296;48.084;16.352;2023-02-24T05:11:39;41.80;;;24.08;;
18340;SDS011;9296;48.084;16.352;2023-02-24T05:14:08;43.20;;;25.45;;
18340;SDS011;9296;48.084;16.352;2023-02-24T05:16:38;39.67;;;24.30;;
18340;SDS011;9296;48.084;16.352;2023-02-24T05:22:28;39.80;;;24.25;;
18340;SDS011;9296;48.084;16.352;2023-02-24T05:24:55;46.70;;;26.00;;
18340;SDS011;9296;48.084;16.352;2023-02-24T05:27:24;42.97;;;24.10;;
18340;SDS011;9296;48.084;16.352;2023-02-24T05:29:52;43.03;;;24.65;;
18340;SDS011;9296;48.084;16.352;2023-02-24T05:32:19;41.17;;;24.58;;
18340;SDS011;9296;48.084;16.352;2023-02-24T05:34:49;40.65;;;24.92;;
18340;SDS011;9296;48.084;16.352;2023-02-24T05:37:16;43.42;;;25.73;;
18340;SDS011;9296;48.084;16.352;2023-02-24T05:39:43;45.28;;;26.13;;
18340;SDS011;9296;48.084;16.352;2023-02-24T05:42:10;44.08;;;25.42;;
18340;SDS011;9296;48.084;16.352;2023-02-24T05:44:38;42.40;;;24.73;;
18340;SDS011;9296;48.084;16.352;2023-02-24T05:47:05;41.92;;;25.40;;
18340;SDS011;9296;48.084;16.352;2023-02-24T05:52:30;41.17;;;24.75;;
18340;SDS011;9296;48.084;16.352;2023-02-24T05:54:59;41.28;;;24.67;;
18340;SDS011;9296;48.084;16.352;2023-02-24T05:57:30;39.58;;;24.17;;
18340;SDS011;9296;48.084;16.352;2023-02-24T06:00:01;39.45;;;23.80;;
18340;SDS011;9296;48.084;16.352;2023-02-24T06:02:40;40.17;;;24.55;;
18340;SDS011;9296;48.084;16.352;2023-02-24T06:05:16;43.35;;;24.48;;
18340;SDS011;9296;48.084;16.352;2023-02-24T06:07:54;43.42;;;24.98;;
18340;SDS011;9296;48.084;16.352;2023-02-24T06:10:29;44.55;;;24.38;;
18340;SDS011;9296;48.084;16.352;2023-02-24T06:12:57;42.03;;;24.85;;
18340;SDS011;9296;48.084;16.352;2023-02-24T06:15:27;46.03;;;25.10;;
18340;SDS011;9296;48.084;16.352;2023-02-24T06:17:54;41.78;;;25.00;;
18340;SDS011;9296;48.084;16.352;2023-02-24T06:23:44;40.95;;;24.92;;
18340;SDS011;9296;48.084;16.352;2023-02-24T06:26:11;38.33;;;23.25;;
18340;SDS011;9296;48.084;16.352;2023-02-24T06:28:43;35.85;;;23.98;;
18340;SDS011;9296;48.084;16.352;2023-02-24T06:31:13;38.65;;;23.75;;
18340;SDS011;9296;48.084;16.352;2023-02-24T06:37:03;36.97;;;23.30;;
18340;SDS011;9296;48.084;16.352;2023-02-24T06:39:31;34.67;;;22.17;;
18340;SDS011;9296;48.084;16.352;2023-02-24T06:41:58;34.83;;;21.67;;
18340;SDS011;9296;48.084;16.352;2023-02-24T06:44:28;37.03;;;23.20;;
18340;SDS011;9296;48.084;16.352;2023-02-24T06:46:56;34.38;;;22.52;;
18340;SDS011;9296;48.084;16.352;2023-02-24T06:49:23;35.58;;;22.92;;
18340;SDS011;9296;48.084;16.352;2023-02-24T06:51:50;34.28;;;22.38;;
18340;SDS011;9296;48.084;16.352;2023-02-24T06:54:18;56.83;;;31.65;;
18340;SDS011;9296;48.084;16.352;2023-02-24T06:56:46;46.78;;;27.70;;
18340;SDS011;9296;48.084;16.352;2023-02-24T06:59:13;55.95;;;33.15;;
18340;SDS011;9296;48.084;16.352;2023-02-24T07:01:45;62.35;;;33.90;;
18340;SDS011;9296;48.084;16.352;2023-02-24T07:07:20;43.83;;;25.70;;
18340;SDS011;9296;48.084;16.352;2023-02-24T07:09:47;43.33;;;26.80;;
18340;SDS011;9296;48.084;16.352;2023-02-24T07:12:15;32.20;;;21.75;;
18340;SDS011;9296;48.084;16.352;2023-02-24T07:14:44;33.80;;;22.05;;
18340;SDS011;9296;48.084;16.352;2023-02-24T07:17:15;32.95;;;22.02;;
18340;SDS011;9296;48.084;16.352;2023-02-24T07:19:43;35.85;;;23.17;;
18340;SDS011;9296;48.084;16.352;2023-02-24T07:22:10;30.25;;;21.58;;
18340;SDS011;9296;48.084;16.352;2023-02-24T07:24:40;39.00;;;24.90;;
18340;SDS011;9296;48.084;16.352;2023-02-24T07:27:11;29.35;;;21.38;;
18340;SDS011;9296;48.084;16.352;2023-02-24T07:29:46;31.60;;;23.40;;
18340;SDS011;9296;48.084;16.352;2023-02-24T07:32:14;40.03;;;25.65;;
18340;SDS011;9296;48.084;16.352;2023-02-24T07:34:41;34.08;;;21.48;;
18340;SDS011;9296;48.084;16.352;2023-02-24T07:37:09;32.10;;;22.65;;
18340;SDS011;9296;48.084;16.352;2023-02-24T07:39:37;38.53;;;23.73;;
18340;SDS011;9296;48.084;16.352;2023-02-24T07:42:08;45.50;;;22.48;;
18340;SDS011;9296;48.084;16.352;2023-02-24T07:44:37;30.23;;;21.13;;
18340;SDS011;9296;48.084;16.352;2023-02-24T07:47:04;29.75;;;21.83;;
18340;SDS011;9296;48.084;16.352;2023-02-24T07:52:42;31.50;;;21.48;;
18340;SDS011;9296;48.084;16.352;2023-02-24T07:55:09;31.02;;;21.70;;
18340;SDS011;9296;48.084;16.352;2023-02-24T07:57:38;30.52;;;22.67;;
18340;SDS011;9296;48.084;16.352;2023-02-24T08:00:11;28.02;;;21.25;;
18340;SDS011;9296;48.084;16.352;2023-02-24T08:02:43;27.50;;;20.90;;
18340;SDS011;9296;48.084;16.352;2023-02-24T08:08:33;27.85;;;21.67;;
18340;SDS011;9296;48.084;16.352;2023-02-24T08:11:20;28.75;;;21.73;;
18340;SDS011;9296;48.084;16.352;2023-02-24T08:13:50;28.42;;;21.00;;
18340;SDS011;9296;48.084;16.352;2023-02-24T08:16:17;26.15;;;20.85;;
18340;SDS011;9296;48.084;16.352;2023-02-24T08:18:45;27.40;;;20.77;;
18340;SDS011;9296;48.084;16.352;2023-02-24T08:24:36;25.88;;;20.50;;
18340;SDS011;9296;48.084;16.352;2023-02-24T08:27:03;26.55;;;20.08;;
18340;SDS011;9296;48.084;16.352;2023-02-24T08:29:31;24.05;;;19.42;;
18340;SDS011;9296;48.084;16.352;2023-02-24T08:32:04;24.80;;;19.45;;
18340;SDS011;9296;48.084;16.352;2023-02-24T08:34:33;23.58;;;19.40;;
18340;SDS011;9296;48.084;16.352;2023-02-24T08:37:00;27.30;;;19.42;;
18340;SDS011;9296;48.084;16.352;2023-02-24T08:39:27;25.55;;;19.23;;
18340;SDS011;9296;48.084;16.352;2023-02-24T08:41:55;25.10;;;18.45;;
18340;SDS011;9296;48.084;16.352;2023-02-24T08:44:22;22.25;;;18.38;;
18340;SDS011;9296;48.084;16.352;2023-02-24T08:46:52;25.33;;;18.98;;
18340;SDS011;9296;48.084;16.352;2023-02-24T08:49:21;23.70;;;17.70;;
18340;SDS011;9296;48.084;16.352;2023-02-24T08:51:50;23.42;;;17.92;;
18340;SDS011;9296;48.084;16.352;2023-02-24T08:54:19;23.17;;;17.15;;
18340;SDS011;9296;48.084;16.352;2023-02-24T08:56:51;23.65;;;18.10;;
18340;SDS011;9296;48.084;16.352;2023-02-24T08:59:20;22.40;;;17.48;;
18340;SDS011;9296;48.084;16.352;2023-02-24T09:02:04;20.20;;;16.83;;
18340;SDS011;9296;48.084;16.352;2023-02-24T09:04:48;21.45;;;16.70;;
18340;SDS011;9296;48.084;16.352;2023-02-24T09:07:17;21.83;;;16.45;;
18340;SDS011;9296;48.084;16.352;2023-02-24T09:09:46;21.80;;;15.80;;
18340;SDS011;9296;48.084;16.352;2023-02-24T09:12:13;22.05;;;16.02;;
18340;SDS011;9296;48.084;16.352;2023-02-24T09:14:49;19.02;;;14.25;;
18340;SDS011;9296;48.084;16.352;2023-02-24T09:17:21;18.20;;;13.68;;
18340;SDS011;9296;48.084;16.352;2023-02-24T09:20:04;15.73;;;12.68;;
18340;SDS011;9296;48.084;16.352;2023-02-24T09:22:50;16.38;;;12.45;;
18340;SDS011;9296;48.084;16.352;2023-02-24T09:25:27;15.07;;;12.30;;
18340;SDS011;9296;48.084;16.352;2023-02-24T09:28:09;16.75;;;12.75;;
18340;SDS011;9296;48.084;16.352;2023-02-24T09:30:41;16.80;;;12.32;;
18340;SDS011;9296;48.084;16.352;2023-02-24T09:33:21;15.38;;;11.27;;
18340;SDS011;9296;48.084;16.352;2023-02-24T09:35:54;18.13;;;12.38;;
18340;SDS011;9296;48.084;16.352;2023-02-24T09:38:35;14.25;;;10.57;;
18340;SDS011;9296;48.084;16.352;2023-02-24T09:41:37;13.50;;;9.98;;
18340;SDS011;9296;48.084;16.352;2023-02-24T09:44:26;12.40;;;8.88;;
18340;SDS011;9296;48.084;16.352;2023-02-24T09:46:58;11.45;;;9.45;;
18340;SDS011;9296;48.084;16.352;2023-02-24T09:49:46;11.60;;;8.38;;
18340;SDS011;9296;48.084;16.352;2023-02-24T09:52:16;13.48;;;8.85;;
18340;SDS011;9296;48.084;16.352;2023-02-24T09:54:44;12.48;;;9.57;;
18340;SDS011;9296;48.084;16.352;2023-02-24T09:57:44;13.38;;;9.65;;
18340;SDS011;9296;48.084;16.352;2023-02-24T10:00:38;12.43;;;9.23;;
18340;SDS011;9296;48.084;16.352;2023-02-24T10:03:11;13.70;;;10.48;;
18340;SDS011;9296;48.084;16.352;2023-02-24T10:06:24;14.18;;;9.88;;
18340;SDS011;9296;48.084;16.352;2023-02-24T10:09:00;15.13;;;9.68;;
18340;SDS011;9296;48.084;16.352;2023-02-24T10:11:37;13.07;;;10.00;;
18340;SDS011;9296;48.084;16.352;2023-02-24T10:14:19;13.07;;;8.80;;
18340;SDS011;9296;48.084;16.352;2023-02-24T10:16:50;11.57;;;9.50;;
18340;SDS011;9296;48.084;16.352;2023-02-24T10:19:38;12.80;;;8.93;;
18340;SDS011;9296;48.084;16.352;2023-02-24T10:22:07;13.02;;;8.93;;
18340;SDS011;9296;48.084;16.352;2023-02-24T10:24:52;12.00;;;8.38;;
18340;SDS011;9296;48.084;16.352;2023-02-24T10:27:36;12.07;;;7.93;;
18340;SDS011;9296;48.084;16.352;2023-02-24T10:30:20;11.10;;;6.75;;
18340;SDS011;9296;48.084;16.352;2023-02-24T10:33:05;9.48;;;7.00;;
18340;SDS011;9296;48.084;16.352;2023-02-24T10:36:08;13.65;;;6.70;;
18340;SDS011;9296;48.084;16.352;2023-02-24T10:38:36;9.20;;;5.93;;
18340;SDS011;9296;48.084;16.352;2023-02-24T10:41:09;7.57;;;5.07;;
18340;SDS011;9296;48.084;16.352;2023-02-24T10:43:37;9.20;;;6.22;;
18340;SDS011;9296;48.084;16.352;2023-02-24T10:46:22;7.30;;;5.07;;
18340;SDS011;9296;48.084;16.352;2023-02-24T10:48:57;8.73;;;5.90;;
18340;SDS011;9296;48.084;16.352;2023-02-24T10:51:28;11.60;;;5.75;;
18340;SDS011;9296;48.084;16.352;2023-02-24T10:54:05;9.57;;;5.30;;
18340;SDS011;9296;48.084;16.352;2023-02-24T10:56:53;8.52;;;5.38;;
18340;SDS011;9296;48.084;16.352;2023-02-24T10:59:39;6.80;;;4.75;;
18340;SDS011;9296;48.084;16.352;2023-02-24T11:02:43;7.50;;;4.30;;
18340;SDS011;9296;48.084;16.352;2023-02-24T11:05:33;7.38;;;4.38;;
18340;SDS011;9296;48.084;16.352;2023-02-24T11:08:11;6.55;;;4.88;;
18340;SDS011;9296;48.084;16.352;2023-02-24T11:10:53;8.48;;;4.50;;
18340;SDS011;9296;48.084;16.352;2023-02-24T11:13:30;7.38;;;4.35;;
18340;SDS011;9296;48.084;16.352;2023-02-24T11:16:16;7.75;;;4.82;;
18340;SDS011;9296;48.084;16.352;2023-02-24T11:19:09;6.95;;;4.20;;
18340;SDS011;9296;48.084;16.352;2023-02-24T11:21:36;6.75;;;4.10;;
18340;SDS011;9296;48.084;16.352;2023-02-24T11:24:03;7.13;;;4.30;;
18340;SDS011;9296;48.084;16.352;2023-02-24T11:26:33;10.82;;;4.80;;
18340;SDS011;9296;48.084;16.352;2023-02-24T11:29:08;9.93;;;6.13;;
18340;SDS011;9296;48.084;16.352;2023-02-24T11:31:54;10.85;;;6.72;;
18340;SDS011;9296;48.084;16.352;2023-02-24T11:34:37;12.93;;;8.43;;
18340;SDS011;9296;48.084;16.352;2023-02-24T11:37:14;11.40;;;7.18;;
18340;SDS011;9296;48.084;16.352;2023-02-24T11:39:53;14.13;;;6.72;;
18340;SDS011;9296;48.084;16.352;2023-02-24T11:42:24;9.65;;;6.20;;
18340;SDS011;9296;48.084;16.352;2023-02-24T11:44:57;9.55;;;6.53;;
18340;SDS011;9296;48.084;16.352;2023-02-24T11:47:29;10.70;;;7.32;;
18340;SDS011;9296;48.084;16.352;2023-02-24T11:50:24;13.30;;;7.27;;
18340;SDS011;9296;48.084;16.352;2023-02-24T11:52:56;9.95;;;7.25;;
18340;SDS011;9296;48.084;16.352;2023-02-24T11:55:28;13.93;;;8.38;;
18340;SDS011;9296;48.084;16.352;2023-02-24T11:58:00;14.43;;;8.30;;
18340;SDS011;9296;48.084;16.352;2023-02-24T12:00:33;11.45;;;7.43;;
18340;SDS011;9296;48.084;16.352;2023-02-24T12:03:03;11.35;;;8.18;;
18340;SDS011;9296;48.084;16.352;2023-02-24T12:05:41;12.23;;;8.18;;
18340;SDS011;9296;48.084;16.352;2023-02-24T12:08:14;11.35;;;8.27;;
18340;SDS011;9296;48.084;16.352;2023-02-24T12:10:50;12.40;;;8.30;;
18340;SDS011;9296;48.084;16.352;2023-02-24T12:13:26;11.63;;;8.35;;
18340;SDS011;9296;48.084;16.352;2023-02-24T12:16:03;13.70;;;8.60;;
18340;SDS011;9296;48.084;16.352;2023-02-24T12:18:37;12.55;;;8.23;;
18340;SDS011;9296;48.084;16.352;2023-02-24T12:21:10;10.82;;;7.80;;
18340;SDS011;9296;48.084;16.352;2023-02-24T12:23:42;13.65;;;8.32;;
18340;SDS011;9296;48.084;16.352;2023-02-24T12:26:14;12.63;;;8.90;;
18340;SDS011;9296;48.084;16.352;2023-02-24T12:28:48;14.45;;;8.75;;
18340;SDS011;9296;48.084;16.352;2023-02-24T12:31:43;13.32;;;8.77;;
18340;SDS011;9296;48.084;16.352;2023-02-24T12:34:22;14.15;;;9.02;;
18340;SDS011;9296;48.084;16.352;2023-02-24T12:40:03;19.58;;;10.25;;
18340;SDS011;9296;48.084;16.352;2023-02-24T12:42:41;14.07;;;10.30;;
18340;SDS011;9296;48.084;16.352;2023-02-24T12:45:16;16.70;;;10.20;;
18340;SDS011;9296;48.084;16.352;2023-02-24T12:47:51;14.38;;;10.13;;
18340;SDS011;9296;48.084;16.352;2023-02-24T12:50:29;16.55;;;9.93;;
18340;SDS011;9296;48.084;16.352;2023-02-24T12:53:05;14.23;;;9.90;;
18340;SDS011;9296;48.084;16.352;2023-02-24T12:55:42;15.18;;;10.15;;
18340;SDS011;9296;48.084;16.352;2023-02-24T12:58:15;13.63;;;9.93;;
18340;SDS011;9296;48.084;16.352;2023-02-24T13:00:49;14.98;;;9.88;;
18340;SDS011;9296;48.084;16.352;2023-02-24T13:03:32;16.17;;;10.57;;
18340;SDS011;9296;48.084;16.352;2023-02-24T13:09:20;14.65;;;9.60;;
18340;SDS011;9296;48.084;16.352;2023-02-24T13:11:55;16.83;;;9.80;;
18340;SDS011;9296;48.084;16.352;2023-02-24T13:14:27;14.40;;;8.68;;
18340;SDS011;9296;48.084;16.352;2023-02-24T13:19:44;17.20;;;9.60;;
18340;SDS011;9296;48.084;16.352;2023-02-24T13:22:18;14.55;;;9.40;;
18340;SDS011;9296;48.084;16.352;2023-02-24T13:24:55;14.55;;;9.27;;
18340;SDS011;9296;48.084;16.352;2023-02-24T13:27:39;12.80;;;9.43;;
18340;SDS011;9296;48.084;16.352;2023-02-24T13:30:22;14.23;;;9.05;;
18340;SDS011;9296;48.084;16.352;2023-02-24T13:32:59;15.48;;;9.75;;
18340;SDS011;9296;48.084;16.352;2023-02-24T13:35:30;13.82;;;9.88;;
18340;SDS011;9296;48.084;16.352;2023-02-24T13:38:09;14.85;;;9.95;;
18340;SDS011;9296;48.084;16.352;2023-02-24T13:40:49;16.95;;;11.68;;
18340;SDS011;9296;48.084;16.352;2023-02-24T13:43:22;17.02;;;11.50;;
18340;SDS011;9296;48.084;16.352;2023-02-24T13:45:56;17.70;;;11.57;;
18340;SDS011;9296;48.084;16.352;2023-02-24T13:51:54;18.13;;;11.60;;
18340;SDS011;9296;48.084;16.352;2023-02-24T13:57:43;17.20;;;10.75;;
18340;SDS011;9296;48.084;16.352;2023-02-24T14:00:22;16.58;;;11.05;;
18340;SDS011;9296;48.084;16.352;2023-02-24T14:02:59;16.40;;;11.15;;
18340;SDS011;9296;48.084;16.352;2023-02-24T14:05:27;15.07;;;10.88;;
18340;SDS011;9296;48.084;16.352;2023-02-24T14:07:57;17.42;;;11.45;;
18340;SDS011;9296;48.084;16.352;2023-02-24T14:10:25;16.75;;;11.13;;
18340;SDS011;9296;48.084;16.352;2023-02-24T14:12:57;16.15;;;11.60;;
18340;SDS011;9296;48.084;16.352;2023-02-24T14:15:29;17.58;;;12.02;;
18340;SDS011;9296;48.084;16.352;2023-02-24T14:17:57;18.65;;;11.93;;
18340;SDS011;9296;48.084;16.352;2023-02-24T14:20:26;18.48;;;13.20;;
18340;SDS011;9296;48.084;16.352;2023-02-24T14:22:56;19.13;;;12.75;;
18340;SDS011;9296;48.084;16.352;2023-02-24T14:25:25;18.90;;;12.95;;
18340;SDS011;9296;48.084;16.352;2023-02-24T14:27:54;18.67;;;13.38;;
18340;SDS011;9296;48.084;16.352;2023-02-24T14:30:23;21.35;;;13.48;;
18340;SDS011;9296;48.084;16.352;2023-02-24T14:32:56;22.00;;;14.65;;
18340;SDS011;9296;48.084;16.352;2023-02-24T14:42:02;22.98;;;15.60;;
18340;SDS011;9296;48.084;16.352;2023-02-24T14:44:39;21.95;;;15.32;;
18340;SDS011;9296;48.084;16.352;2023-02-24T14:47:08;22.58;;;15.35;;
18340;SDS011;9296;48.084;16.352;2023-02-24T14:49:39;23.95;;;15.57;;
18340;SDS011;9296;48.084;16.352;2023-02-24T14:55:30;23.90;;;15.80;;
18340;SDS011;9296;48.084;16.352;2023-02-24T14:58:02;25.80;;;16.45;;
18340;SDS011;9296;48.084;16.352;2023-02-24T15:00:32;22.75;;;15.65;;
18340;SDS011;9296;48.084;16.352;2023-02-24T15:03:03;22.42;;;16.00;;
18340;SDS011;9296;48.084;16.352;2023-02-24T15:12:07;26.20;;;17.17;;
18340;SDS011;9296;48.084;16.352;2023-02-24T15:14:37;24.10;;;16.73;;
18340;SDS011;9296;48.084;16.352;2023-02-24T15:17:07;23.52;;;16.33;;
18340;SDS011;9296;48.084;16.352;2023-02-24T15:19:40;26.15;;;17.95;;
18340;SDS011;9296;48.084;16.352;2023-02-24T15:22:18;23.55;;;16.88;;
18340;SDS011;9296;48.084;16.352;2023-02-24T15:24:53;26.58;;;16.80;;
18340;SDS011;9296;48.084;16.352;2023-02-24T15:27:23;24.38;;;16.45;;
18340;SDS011;9296;48.084;16.352;2023-02-24T15:29:58;28.27;;;20.00;;
18340;SDS011;9296;48.084;16.352;2023-02-24T15:32:27;27.67;;;20.30;;
18340;SDS011;9296;48.084;16.352;2023-02-24T15:34:57;26.27;;;18.20;;
18340;SDS011;9296;48.084;16.352;2023-02-24T15:40:51;23.90;;;17.40;;
18340;SDS011;9296;48.084;16.352;2023-02-24T15:43:29;28.20;;;18.13;;
18340;SDS011;9296;48.084;16.352;2023-02-24T15:45:57;40.22;;;28.23;;
18340;SDS011;9296;48.084;16.352;2023-02-24T15:48:24;37.47;;;25.20;;
18340;SDS011;9296;48.084;16.352;2023-02-24T15:50:53;30.55;;;21.63;;
18340;SDS011;9296;48.084;16.352;2023-02-24T15:53:27;31.48;;;20.35;;
18340;SDS011;9296;48.084;16.352;2023-02-24T15:55:55;28.85;;;20.17;;
18340;SDS011;9296;48.084;16.352;2023-02-24T15:58:22;31.15;;;20.02;;
18340;SDS011;9296;48.084;16.352;2023-02-24T16:00:49;26.38;;;17.95;;
18340;SDS011;9296;48.084;16.352;2023-02-24T16:03:17;27.02;;;17.10;;
18340;SDS011;9296;48.084;16.352;2023-02-24T16:08:49;26.88;;;18.73;;
18340;SDS011;9296;48.084;16.352;2023-02-24T16:11:18;27.40;;;17.58;;
18340;SDS011;9296;48.084;16.352;2023-02-24T16:13:50;26.67;;;18.65;;
18340;SDS011;9296;48.084;16.352;2023-02-24T16:16:19;21.65;;;15.40;;
18340;SDS011;9296;48.084;16.352;2023-02-24T16:18:48;24.02;;;15.98;;
18340;SDS011;9296;48.084;16.352;2023-02-24T16:21:15;21.48;;;13.98;;
18340;SDS011;9296;48.084;16.352;2023-02-24T16:23:42;22.92;;;13.40;;
18340;SDS011;9296;48.084;16.352;2023-02-24T16:26:12;23.10;;;14.77;;
18340;SDS011;9296;48.084;16.352;2023-02-24T16:28:42;21.45;;;14.02;;
18340;SDS011;9296;48.084;16.352;2023-02-24T16:31:10;19.73;;;13.45;;
18340;SDS011;9296;48.084;16.352;2023-02-24T16:33:37;20.90;;;13.73;;
18340;SDS011;9296;48.084;16.352;2023-02-24T16:36:22;25.20;;;15.80;;
18340;SDS011;9296;48.084;16.352;2023-02-24T16:38:51;25.42;;;16.38;;